sensor_id;sensor_type;location;lat;lon;timestamp;pressure;altitude;pressure_sealevel;temperature;humidity
82379;BME280;72008;48.140;11.614;2023-11-21T00:00:24;94976.00;;;9.28;80.36
82379;BME280;72008;48.140;11.614;2023-11-21T00:01:25;94980.34;;;9.29;80.08
82379;BME280;72008;48.140;11.614;2023-11-21T00:02:25;94986.06;;;9.40;81.47
82379;BME280;72008;48.140;11.614;2023-11-21T00:03:26;94985.44;;;9.30;75.88
82379;BME280;72008;48.140;11.614;2023-11-21T00:04:26;94976.44;;;9.30;75.13
82379;BME280;72008;48.140;11.614;2023-11-21T00:05:26;94980.44;;;9.32;80.31
82379;BME280;72008;48.140;11.614;2023-11-21T00:06:27;94980.53;;;9.36;78.12
82379;BME280;72008;48.140;11.614;2023-11-21T00:07:27;94973.13;;;9.37;79.66
82379;BME280;72008;48.140;11.614;2023-11-21T00:08:28;94979.63;;;9.32;78.61
82379;BME280;72008;48.140;11.614;2023-11-21T00:09:28;94974.28;;;9.36;77.15
82379;BME280;72008;48.140;11.614;2023-11-21T00:10:29;94977.09;;;9.39;78.50
82379;BME280;72008;48.140;11.614;2023-11-21T00:11:29;94976.31;;;9.39;77.22
82379;BME280;72008;48.140;11.614;2023-11-21T00:12:30;94967.88;;;9.31;78.22
82379;BME280;72008;48.140;11.614;2023-11-21T00:13:30;94972.84;;;9.26;76.73
82379;BME280;72008;48.140;11.614;2023-11-21T00:14:31;94975.44;;;9.22;77.17
82379;BME280;72008;48.140;11.614;2023-11-21T00:15:31;94963.44;;;9.11;76.71
82379;BME280;72008;48.140;11.614;2023-11-21T00:16:32;94971.97;;;9.09;78.49
82379;BME280;72008;48.140;11.614;2023-11-21T00:17:32;94977.31;;;9.06;75.36
82379;BME280;72008;48.140;11.614;2023-11-21T00:18:32;94969.81;;;9.03;79.05
82379;BME280;72008;48.140;11.614;2023-11-21T00:19:33;94964.22;;;9.11;82.34
82379;BME280;72008;48.140;11.614;2023-11-21T00:20:33;94969.47;;;9.04;76.89
82379;BME280;72008;48.140;11.614;2023-11-21T00:21:34;94960.34;;;9.13;78.98
82379;BME280;72008;48.140;11.614;2023-11-21T00:22:35;94959.75;;;9.19;80.26
82379;BME280;72008;48.140;11.614;2023-11-21T00:23:36;94957.84;;;9.07;75.96
82379;BME280;72008;48.140;11.614;2023-11-21T00:24:36;94957.19;;;8.98;78.00
82379;BME280;72008;48.140;11.614;2023-11-21T00:25:37;94949.47;;;9.00;77.85
82379;BME280;72008;48.140;11.614;2023-11-21T00:26:37;94948.00;;;9.03;80.04
82379;BME280;72008;48.140;11.614;2023-11-21T00:27:38;94952.44;;;8.95;78.92
82379;BME280;72008;48.140;11.614;2023-11-21T00:28:38;94941.38;;;9.04;81.93
82379;BME280;72008;48.140;11.614;2023-11-21T00:29:38;94946.25;;;9.10;82.20
82379;BME280;72008;48.140;11.614;2023-11-21T00:30:39;94943.78;;;9.05;76.87
82379;BME280;72008;48.140;11.614;2023-11-21T00:31:39;94937.41;;;9.01;78.60
82379;BME280;72008;48.140;11.614;2023-11-21T00:32:39;94941.75;;;9.02;77.00
82379;BME280;72008;48.140;11.614;2023-11-21T00:33:40;94936.84;;;8.96;76.30
82379;BME280;72008;48.140;11.614;2023-11-21T00:34:40;94937.75;;;9.00;79.93
82379;BME280;72008;48.140;11.614;2023-11-21T00:35:41;94932.41;;;9.03;77.63
82379;BME280;72008;48.140;11.614;2023-11-21T00:36:41;94922.41;;;8.95;75.72
82379;BME280;72008;48.140;11.614;2023-11-21T00:37:41;94930.38;;;9.00;79.77
82379;BME280;72008;48.140;11.614;2023-11-21T00:38:42;94926.84;;;9.00;77.44
82379;BME280;72008;48.140;11.614;2023-11-21T00:39:42;94930.13;;;8.93;75.08
82379;BME280;72008;48.140;11.614;2023-11-21T00:40:43;94930.44;;;8.76;77.27
82379;BME280;72008;48.140;11.614;2023-11-21T00:41:43;94934.63;;;8.85;80.09
82379;BME280;72008;48.140;11.614;2023-11-21T00:42:43;94928.00;;;8.86;77.94
82379;BME280;72008;48.140;11.614;2023-11-21T00:43:44;94932.03;;;8.77;78.23
82379;BME280;72008;48.140;11.614;2023-11-21T00:44:44;94933.22;;;8.92;83.20
82379;BME280;72008;48.140;11.614;2023-11-21T00:45:45;94932.41;;;9.03;79.01
82379;BME280;72008;48.140;11.614;2023-11-21T00:46:45;94929.22;;;9.01;75.31
82379;BME280;72008;48.140;11.614;2023-11-21T00:47:45;94923.19;;;8.96;77.58
82379;BME280;72008;48.140;11.614;2023-11-21T00:48:46;94922.31;;;8.92;75.08
82379;BME280;72008;48.140;11.614;2023-11-21T00:49:47;94918.69;;;8.87;75.06
82379;BME280;72008;48.140;11.614;2023-11-21T00:50:47;94915.38;;;8.94;77.78
82379;BME280;72008;48.140;11.614;2023-11-21T00:51:47;94920.03;;;8.94;78.67
82379;BME280;72008;48.140;11.614;2023-11-21T00:52:48;94914.69;;;8.97;77.19
82379;BME280;72008;48.140;11.614;2023-11-21T00:53:48;94921.38;;;9.00;77.20
82379;BME280;72008;48.140;11.614;2023-11-21T00:54:49;94919.22;;;8.93;74.29
82379;BME280;72008;48.140;11.614;2023-11-21T00:55:49;94921.72;;;8.98;79.88
82379;BME280;72008;48.140;11.614;2023-11-21T00:56:49;94923.97;;;9.08;79.31
82379;BME280;72008;48.140;11.614;2023-11-21T00:57:50;94920.41;;;9.20;82.93
82379;BME280;72008;48.140;11.614;2023-11-21T00:58:50;94917.41;;;9.25;82.82
82379;BME280;72008;48.140;11.614;2023-11-21T00:59:51;94916.38;;;9.30;79.84
82379;BME280;72008;48.140;11.614;2023-11-21T01:00:51;94916.47;;;9.33;81.06
82379;BME280;72008;48.140;11.614;2023-11-21T01:01:51;94925.59;;;9.25;80.98
82379;BME280;72008;48.140;11.614;2023-11-21T01:02:52;94916.06;;;9.19;76.70
82379;BME280;72008;48.140;11.614;2023-11-21T01:03:52;94923.69;;;9.26;81.27
82379;BME280;72008;48.140;11.614;2023-11-21T01:04:52;94921.19;;;9.21;78.55
82379;BME280;72008;48.140;11.614;2023-11-21T01:05:53;94922.75;;;9.22;77.01
82379;BME280;72008;48.140;11.614;2023-11-21T01:06:53;94922.44;;;9.23;80.21
82379;BME280;72008;48.140;11.614;2023-11-21T01:07:54;94919.78;;;9.27;77.64
82379;BME280;72008;48.140;11.614;2023-11-21T01:08:54;94920.94;;;9.26;74.98
82379;BME280;72008;48.140;11.614;2023-11-21T01:09:54;94927.53;;;9.25;80.66
82379;BME280;72008;48.140;11.614;2023-11-21T01:10:55;94924.00;;;9.24;81.83
82379;BME280;72008;48.140;11.614;2023-11-21T01:11:55;94924.91;;;9.28;78.38
82379;BME280;72008;48.140;11.614;2023-11-21T01:12:56;94927.91;;;9.23;79.02
82379;BME280;72008;48.140;11.614;2023-11-21T01:13:56;94927.63;;;9.28;78.11
82379;BME280;72008;48.140;11.614;2023-11-21T01:14:56;94926.84;;;9.28;80.58
82379;BME280;72008;48.140;11.614;2023-11-21T01:15:57;94930.63;;;9.23;77.09
82379;BME280;72008;48.140;11.614;2023-11-21T01:16:57;94928.06;;;9.30;82.22
82379;BME280;72008;48.140;11.614;2023-11-21T01:17:58;94921.13;;;9.33;79.69
82379;BME280;72008;48.140;11.614;2023-11-21T01:18:59;94927.38;;;9.33;81.62
82379;BME280;72008;48.140;11.614;2023-11-21T01:20:00;94926.22;;;9.34;82.50
82379;BME280;72008;48.140;11.614;2023-11-21T01:21:01;94922.63;;;9.30;82.36
82379;BME280;72008;48.140;11.614;2023-11-21T01:22:01;94918.47;;;9.21;78.42
82379;BME280;72008;48.140;11.614;2023-11-21T01:23:02;94925.59;;;9.25;80.81
82379;BME280;72008;48.140;11.614;2023-11-21T01:24:03;94929.66;;;9.31;83.47
82379;BME280;72008;48.140;11.614;2023-11-21T01:25:03;94928.88;;;9.31;80.46
82379;BME280;72008;48.140;11.614;2023-11-21T01:26:04;94926.50;;;9.29;80.05
82379;BME280;72008;48.140;11.614;2023-11-21T01:27:04;94923.06;;;9.32;80.85
82379;BME280;72008;48.140;11.614;2023-11-21T01:28:05;94919.28;;;9.37;82.57
82379;BME280;72008;48.140;11.614;2023-11-21T01:29:05;94915.56;;;9.29;81.35
82379;BME280;72008;48.140;11.614;2023-11-21T01:30:06;94920.25;;;9.29;78.73
82379;BME280;72008;48.140;11.614;2023-11-21T01:31:06;94922.72;;;9.34;83.30
82379;BME280;72008;48.140;11.614;2023-11-21T01:32:07;94922.72;;;9.34;81.70
82379;BME280;72008;48.140;11.614;2023-11-21T01:33:07;94911.50;;;9.23;75.60
82379;BME280;72008;48.140;11.614;2023-11-21T01:34:07;94920.50;;;9.24;80.50
82379;BME280;72008;48.140;11.614;2023-11-21T01:35:08;94917.53;;;9.17;75.77
82379;BME280;72008;48.140;11.614;2023-11-21T01:36:09;94923.69;;;9.14;76.99
82379;BME280;72008;48.140;11.614;2023-11-21T01:37:09;94918.78;;;9.19;79.17
82379;BME280;72008;48.140;11.614;2023-11-21T01:38:09;94925.03;;;9.20;79.10
82379;BME280;72008;48.140;11.614;2023-11-21T01:39:10;94922.13;;;9.13;78.39
82379;BME280;72008;48.140;11.614;2023-11-21T01:40:10;94926.88;;;9.16;80.53
82379;BME280;72008;48.140;11.614;2023-11-21T01:41:11;94930.97;;;9.22;78.16
82379;BME280;72008;48.140;11.614;2023-11-21T01:42:11;94940.31;;;9.21;81.12
82379;BME280;72008;48.140;11.614;2023-11-21T01:43:12;94927.91;;;9.23;81.30
82379;BME280;72008;48.140;11.614;2023-11-21T01:44:12;94927.06;;;9.23;80.07
82379;BME280;72008;48.140;11.614;2023-11-21T01:45:13;94931.88;;;9.26;80.61
82379;BME280;72008;48.140;11.614;2023-11-21T01:46:13;94925.59;;;9.25;81.33
82379;BME280;72008;48.140;11.614;2023-11-21T01:47:14;94933.44;;;9.27;81.47
82379;BME280;72008;48.140;11.614;2023-11-21T01:48:15;94930.34;;;9.28;80.74
82379;BME280;72008;48.140;11.614;2023-11-21T01:49:16;94932.38;;;9.31;82.10
82379;BME280;72008;48.140;11.614;2023-11-21T01:50:18;94925.94;;;9.24;77.19
82379;BME280;72008;48.140;11.614;2023-11-21T01:51:18;94922.53;;;9.27;82.23
82379;BME280;72008;48.140;11.614;2023-11-21T01:52:19;94929.13;;;9.26;80.06
82379;BME280;72008;48.140;11.614;2023-11-21T01:53:20;94922.31;;;9.20;78.84
82379;BME280;72008;48.140;11.614;2023-11-21T01:54:21;94925.22;;;9.11;81.00
82379;BME280;72008;48.140;11.614;2023-11-21T01:55:22;94918.69;;;9.16;79.87
82379;BME280;72008;48.140;11.614;2023-11-21T01:56:23;94924.41;;;9.10;75.26
82379;BME280;72008;48.140;11.614;2023-11-21T01:57:23;94920.41;;;9.20;81.38
82379;BME280;72008;48.140;11.614;2023-11-21T01:58:24;94921.44;;;9.16;79.97
82379;BME280;72008;48.140;11.614;2023-11-21T01:59:27;94919.56;;;9.20;80.66
82379;BME280;72008;48.140;11.614;2023-11-21T02:00:28;94927.06;;;9.23;79.50
82379;BME280;72008;48.140;11.614;2023-11-21T02:01:28;94923.56;;;9.22;77.14
82379;BME280;72008;48.140;11.614;2023-11-21T02:02:28;94928.31;;;9.25;81.37
82379;BME280;72008;48.140;11.614;2023-11-21T02:03:29;94927.63;;;9.28;80.51
82379;BME280;72008;48.140;11.614;2023-11-21T02:04:29;94929.13;;;9.26;76.94
82379;BME280;72008;48.140;11.614;2023-11-21T02:05:30;94934.59;;;9.26;78.22
82379;BME280;72008;48.140;11.614;2023-11-21T02:06:30;94929.94;;;9.26;79.88
82379;BME280;72008;48.140;11.614;2023-11-21T02:07:31;94933.91;;;9.29;82.21
82379;BME280;72008;48.140;11.614;2023-11-21T02:08:31;94940.59;;;9.31;79.10
82379;BME280;72008;48.140;11.614;2023-11-21T02:09:32;94938.06;;;9.39;83.30
82379;BME280;72008;48.140;11.614;2023-11-21T02:10:32;94936.56;;;9.41;83.06
82379;BME280;72008;48.140;11.614;2023-11-21T02:11:33;94944.41;;;9.43;82.74
82379;BME280;72008;48.140;11.614;2023-11-21T02:12:33;94941.13;;;9.37;82.52
82379;BME280;72008;48.140;11.614;2023-11-21T02:13:34;94938.84;;;9.39;80.89
82379;BME280;72008;48.140;11.614;2023-11-21T02:14:34;94935.34;;;9.39;77.50
82379;BME280;72008;48.140;11.614;2023-11-21T02:15:35;94937.50;;;9.33;79.13
82379;BME280;72008;48.140;11.614;2023-11-21T02:16:36;94939.25;;;9.25;77.33
82379;BME280;72008;48.140;11.614;2023-11-21T02:17:36;94935.72;;;9.25;78.18
82379;BME280;72008;48.140;11.614;2023-11-21T02:18:37;94939.59;;;9.24;76.43
82379;BME280;72008;48.140;11.614;2023-11-21T02:19:37;94933.13;;;9.16;74.08
82379;BME280;72008;48.140;11.614;2023-11-21T02:20:38;94938.00;;;9.23;77.45
82379;BME280;72008;48.140;11.614;2023-11-21T02:21:39;94940.50;;;9.28;78.17
82379;BME280;72008;48.140;11.614;2023-11-21T02:22:40;94937.44;;;9.29;79.09
82379;BME280;72008;48.140;11.614;2023-11-21T02:23:41;94937.06;;;9.31;79.77
82379;BME280;72008;48.140;11.614;2023-11-21T02:24:41;94934.34;;;9.31;77.87
82379;BME280;72008;48.140;11.614;2023-11-21T02:25:42;94930.88;;;9.18;76.36
82379;BME280;72008;48.140;11.614;2023-11-21T02:26:42;94941.69;;;9.15;76.47
82379;BME280;72008;48.140;11.614;2023-11-21T02:27:42;94933.97;;;9.04;74.16
82379;BME280;72008;48.140;11.614;2023-11-21T02:28:43;94940.41;;;8.96;79.29
82379;BME280;72008;48.140;11.614;2023-11-21T02:29:43;94940.59;;;9.03;82.12
82379;BME280;72008;48.140;11.614;2023-11-21T02:30:43;94928.59;;;9.08;77.07
82379;BME280;72008;48.140;11.614;2023-11-21T02:31:45;94937.13;;;9.19;82.82
82379;BME280;72008;48.140;11.614;2023-11-21T02:32:45;94936.97;;;9.27;80.75
82379;BME280;72008;48.140;11.614;2023-11-21T02:33:46;94935.38;;;9.26;80.84
82379;BME280;72008;48.140;11.614;2023-11-21T02:34:46;94937.91;;;9.19;76.78
82379;BME280;72008;48.140;11.614;2023-11-21T02:35:47;94934.19;;;9.11;75.99
82379;BME280;72008;48.140;11.614;2023-11-21T02:36:48;94941.94;;;9.09;76.48
82379;BME280;72008;48.140;11.614;2023-11-21T02:37:49;94942.84;;;9.01;75.14
82379;BME280;72008;48.140;11.614;2023-11-21T02:38:50;94941.06;;;8.93;77.78
82379;BME280;72008;48.140;11.614;2023-11-21T02:39:50;94931.16;;;9.01;78.30
82379;BME280;72008;48.140;11.614;2023-11-21T02:40:50;94939.91;;;9.06;80.60
82379;BME280;72008;48.140;11.614;2023-11-21T02:41:51;94940.78;;;9.10;79.44
82379;BME280;72008;48.140;11.614;2023-11-21T02:42:51;94935.13;;;9.03;75.34
82379;BME280;72008;48.140;11.614;2023-11-21T02:43:51;94937.09;;;8.91;78.87
82379;BME280;72008;48.140;11.614;2023-11-21T02:44:52;94939.03;;;8.90;79.54
82379;BME280;72008;48.140;11.614;2023-11-21T02:45:52;94938.22;;;8.89;79.75
82379;BME280;72008;48.140;11.614;2023-11-21T02:46:53;94935.88;;;8.88;79.59
82379;BME280;72008;48.140;11.614;2023-11-21T02:47:53;94931.66;;;8.78;78.80
82379;BME280;72008;48.140;11.614;2023-11-21T02:48:53;94934.75;;;8.77;79.05
82379;BME280;72008;48.140;11.614;2023-11-21T02:49:54;94921.56;;;8.79;77.66
82379;BME280;72008;48.140;11.614;2023-11-21T02:50:54;94929.41;;;8.68;79.97
82379;BME280;72008;48.140;11.614;2023-11-21T02:51:55;94924.06;;;8.72;77.63
82379;BME280;72008;48.140;11.614;2023-11-21T02:52:55;94928.03;;;8.74;78.90
82379;BME280;72008;48.140;11.614;2023-11-21T02:53:56;94931.22;;;8.76;78.43
82379;BME280;72008;48.140;11.614;2023-11-21T02:54:56;94917.13;;;8.74;76.82
82379;BME280;72008;48.140;11.614;2023-11-21T02:55:57;94920.91;;;8.70;76.77
82379;BME280;72008;48.140;11.614;2023-11-21T02:56:57;94918.44;;;8.52;75.27
82379;BME280;72008;48.140;11.614;2023-11-21T02:57:58;94919.09;;;8.61;80.05
82379;BME280;72008;48.140;11.614;2023-11-21T02:59:00;94911.91;;;8.69;81.93
82379;BME280;72008;48.140;11.614;2023-11-21T03:00:00;94919.84;;;8.74;78.11
82379;BME280;72008;48.140;11.614;2023-11-21T03:01:01;94912.84;;;8.61;75.28
82379;BME280;72008;48.140;11.614;2023-11-21T03:02:01;94910.00;;;8.70;79.30
82379;BME280;72008;48.140;11.614;2023-11-21T03:03:02;94912.00;;;8.85;83.59
82379;BME280;72008;48.140;11.614;2023-11-21T03:04:02;94906.97;;;8.87;77.70
82379;BME280;72008;48.140;11.614;2023-11-21T03:05:03;94910.97;;;8.77;80.64
82379;BME280;72008;48.140;11.614;2023-11-21T03:06:03;94906.91;;;8.71;76.82
82379;BME280;72008;48.140;11.614;2023-11-21T03:07:04;94908.38;;;8.69;77.16
82379;BME280;72008;48.140;11.614;2023-11-21T03:08:04;94908.59;;;8.76;80.08
82379;BME280;72008;48.140;11.614;2023-11-21T03:09:04;94904.81;;;8.80;79.45
82379;BME280;72008;48.140;11.614;2023-11-21T03:10:06;94903.91;;;8.88;82.39
82379;BME280;72008;48.140;11.614;2023-11-21T03:11:07;94912.53;;;8.91;78.33
82379;BME280;72008;48.140;11.614;2023-11-21T03:12:09;94907.41;;;8.89;76.92
82379;BME280;72008;48.140;11.614;2023-11-21T03:13:10;94914.34;;;8.86;82.54
82379;BME280;72008;48.140;11.614;2023-11-21T03:14:10;94914.13;;;8.92;80.88
82379;BME280;72008;48.140;11.614;2023-11-21T03:15:10;94917.03;;;8.99;81.49
82379;BME280;72008;48.140;11.614;2023-11-21T03:16:12;94920.09;;;9.09;83.56
82379;BME280;72008;48.140;11.614;2023-11-21T03:17:12;94905.44;;;9.02;81.89
82379;BME280;72008;48.140;11.614;2023-11-21T03:18:13;94909.22;;;8.97;78.22
82379;BME280;72008;48.140;11.614;2023-11-21T03:19:13;94913.97;;;9.00;78.61
82379;BME280;72008;48.140;11.614;2023-11-21T03:20:13;94906.78;;;9.08;83.36
82379;BME280;72008;48.140;11.614;2023-11-21T03:21:14;94909.91;;;8.94;79.09
82379;BME280;72008;48.140;11.614;2023-11-21T03:22:14;94909.47;;;8.92;79.81
82379;BME280;72008;48.140;11.614;2023-11-21T03:23:15;94909.47;;;8.92;78.56
82379;BME280;72008;48.140;11.614;2023-11-21T03:24:15;94912.41;;;8.99;78.59
82379;BME280;72008;48.140;11.614;2023-11-21T03:25:15;94902.28;;;9.00;78.18
82379;BME280;72008;48.140;11.614;2023-11-21T03:26:16;94903.94;;;9.04;81.11
82379;BME280;72008;48.140;11.614;2023-11-21T03:27:16;94904.84;;;9.08;80.35
82379;BME280;72008;48.140;11.614;2023-11-21T03:28:17;94899.81;;;9.10;82.69
82379;BME280;72008;48.140;11.614;2023-11-21T03:29:17;94896.66;;;9.08;77.51
82379;BME280;72008;48.140;11.614;2023-11-21T03:30:17;94904.22;;;8.99;78.15
82379;BME280;72008;48.140;11.614;2023-11-21T03:31:18;94894.97;;;9.04;79.95
82379;BME280;72008;48.140;11.614;2023-11-21T03:32:18;94884.06;;;9.04;80.31
82379;BME280;72008;48.140;11.614;2023-11-21T03:33:19;94898.78;;;8.87;76.25
82379;BME280;72008;48.140;11.614;2023-11-21T03:34:25;94898.22;;;8.94;79.41
82379;BME280;72008;48.140;11.614;2023-11-21T03:35:25;94899.78;;;8.95;81.37
82379;BME280;72008;48.140;11.614;2023-11-21T03:36:26;94900.56;;;8.95;82.33
82379;BME280;72008;48.140;11.614;2023-11-21T03:37:26;94900.66;;;8.99;77.81
82379;BME280;72008;48.140;11.614;2023-11-21T03:38:26;94904.34;;;8.91;78.88
82379;BME280;72008;48.140;11.614;2023-11-21T03:39:27;94902.28;;;9.00;82.49
82379;BME280;72008;48.140;11.614;2023-11-21T03:40:27;94898.09;;;8.90;77.72
82379;BME280;72008;48.140;11.614;2023-11-21T03:41:28;94898.22;;;8.94;81.85
82379;BME280;72008;48.140;11.614;2023-11-21T03:42:28;94895.47;;;8.94;78.63
82379;BME280;72008;48.140;11.614;2023-11-21T03:43:29;94894.22;;;8.91;76.75
82379;BME280;72008;48.140;11.614;2023-11-21T03:44:29;94897.88;;;8.83;79.03
82379;BME280;72008;48.140;11.614;2023-11-21T03:45:29;94897.56;;;8.84;79.35
82379;BME280;72008;48.140;11.614;2023-11-21T03:46:30;94894.13;;;8.87;78.80
82379;BME280;72008;48.140;11.614;2023-11-21T03:47:30;94900.28;;;8.84;78.05
82379;BME280;72008;48.140;11.614;2023-11-21T03:48:31;94897.97;;;8.86;81.94
82379;BME280;72008;48.140;11.614;2023-11-21T03:49:31;94895.94;;;8.83;78.53
82379;BME280;72008;48.140;11.614;2023-11-21T03:50:32;94902.09;;;8.80;75.98
82379;BME280;72008;48.140;11.614;2023-11-21T03:51:32;94900.84;;;8.78;77.00
82379;BME280;72008;48.140;11.614;2023-11-21T03:52:33;94899.59;;;8.75;76.42
82379;BME280;72008;48.140;11.614;2023-11-21T03:53:33;94901.41;;;8.83;79.40
82379;BME280;72008;48.140;11.614;2023-11-21T03:54:34;94904.69;;;8.89;80.60
82379;BME280;72008;48.140;11.614;2023-11-21T03:55:34;94902.66;;;8.86;81.47
82379;BME280;72008;48.140;11.614;2023-11-21T03:56:35;94907.47;;;8.77;74.80
82379;BME280;72008;48.140;11.614;2023-11-21T03:57:35;94901.66;;;8.78;77.21
82379;BME280;72008;48.140;11.614;2023-11-21T03:58:36;94899.22;;;8.89;82.79
82379;BME280;72008;48.140;11.614;2023-11-21T03:59:36;94906.25;;;8.90;78.70
82379;BME280;72008;48.140;11.614;2023-11-21T04:00:39;94907.78;;;8.87;79.12
82379;BME280;72008;48.140;11.614;2023-11-21T04:01:40;94908.84;;;8.71;78.36
82379;BME280;72008;48.140;11.614;2023-11-21T04:02:40;94902.22;;;8.72;75.83
82379;BME280;72008;48.140;11.614;2023-11-21T04:03:41;94908.50;;;8.60;76.79
82379;BME280;72008;48.140;11.614;2023-11-21T04:04:41;94901.00;;;8.69;81.60
82379;BME280;72008;48.140;11.614;2023-11-21T04:05:41;94910.38;;;8.84;83.12
82379;BME280;72008;48.140;11.614;2023-11-21T04:06:42;94901.41;;;8.83;78.42
82379;BME280;72008;48.140;11.614;2023-11-21T04:07:42;94911.53;;;8.83;75.91
82379;BME280;72008;48.140;11.614;2023-11-21T04:08:43;94915.16;;;8.87;76.15
82379;BME280;72008;48.140;11.614;2023-11-21T04:09:44;94905.84;;;8.88;82.92
82379;BME280;72008;48.140;11.614;2023-11-21T04:10:44;94908.47;;;8.84;79.80
82379;BME280;72008;48.140;11.614;2023-11-21T04:11:45;94905.16;;;8.91;82.24
82379;BME280;72008;48.140;11.614;2023-11-21T04:12:45;94912.53;;;8.91;78.95
82379;BME280;72008;48.140;11.614;2023-11-21T04:13:46;94906.88;;;8.83;78.57
82379;BME280;72008;48.140;11.614;2023-11-21T04:14:46;94906.72;;;8.92;83.03
82379;BME280;72008;48.140;11.614;2023-11-21T04:15:47;94901.06;;;8.85;77.00
82379;BME280;72008;48.140;11.614;2023-11-21T04:16:47;94901.28;;;8.92;77.65
82379;BME280;72008;48.140;11.614;2023-11-21T04:17:47;94905.84;;;8.88;77.71
82379;BME280;72008;48.140;11.614;2023-11-21T04:18:48;94898.22;;;8.81;77.30
82379;BME280;72008;48.140;11.614;2023-11-21T04:19:48;94898.47;;;8.76;74.88
82379;BME280;72008;48.140;11.614;2023-11-21T04:20:49;94890.91;;;8.70;75.28
82379;BME280;72008;48.140;11.614;2023-11-21T04:21:49;94899.50;;;8.72;77.72
82379;BME280;72008;48.140;11.614;2023-11-21T04:22:50;94895.94;;;8.83;80.10
82379;BME280;72008;48.140;11.614;2023-11-21T04:23:50;94900.94;;;8.81;79.11
82379;BME280;72008;48.140;11.614;2023-11-21T04:24:51;94898.03;;;8.74;79.01
82379;BME280;72008;48.140;11.614;2023-11-21T04:25:51;94903.34;;;8.83;80.45
82379;BME280;72008;48.140;11.614;2023-11-21T04:26:52;94897.22;;;8.74;76.34
82379;BME280;72008;48.140;11.614;2023-11-21T04:27:52;94899.50;;;8.72;75.35
82379;BME280;72008;48.140;11.614;2023-11-21T04:28:52;94896.44;;;8.73;78.76
82379;BME280;72008;48.140;11.614;2023-11-21T04:29:53;94904.13;;;8.83;81.13
82379;BME280;72008;48.140;11.614;2023-11-21T04:30:53;94901.44;;;8.71;75.91
82379;BME280;72008;48.140;11.614;2023-11-21T04:31:54;94905.66;;;8.69;79.76
82379;BME280;72008;48.140;11.614;2023-11-21T04:32:54;94908.75;;;8.67;77.06
82379;BME280;72008;48.140;11.614;2023-11-21T04:33:54;94916.09;;;8.66;78.44
82379;BME280;72008;48.140;11.614;2023-11-21T04:34:55;94911.34;;;8.63;75.64
82379;BME280;72008;48.140;11.614;2023-11-21T04:35:55;94908.19;;;8.61;75.22
82379;BME280;72008;48.140;11.614;2023-11-21T04:36:56;94914.28;;;8.71;79.89
82379;BME280;72008;48.140;11.614;2023-11-21T04:37:56;94915.44;;;8.70;81.50
82379;BME280;72008;48.140;11.614;2023-11-21T04:38:57;94916.66;;;8.72;77.09
82379;BME280;72008;48.140;11.614;2023-11-21T04:39:57;94914.63;;;8.69;77.64
82379;BME280;72008;48.140;11.614;2023-11-21T04:40:58;94917.91;;;8.75;79.21
82379;BME280;72008;48.140;11.614;2023-11-21T04:41:58;94906.91;;;8.71;76.75
82379;BME280;72008;48.140;11.614;2023-11-21T04:42:58;94909.03;;;8.78;79.68
82379;BME280;72008;48.140;11.614;2023-11-21T04:43:59;94905.28;;;8.82;81.12
82379;BME280;72008;48.140;11.614;2023-11-21T04:44:59;94911.63;;;8.86;80.75
82379;BME280;72008;48.140;11.614;2023-11-21T04:45:59;94913.47;;;8.82;79.73
82379;BME280;72008;48.140;11.614;2023-11-21T04:47:00;94913.75;;;8.65;77.02
82379;BME280;72008;48.140;11.614;2023-11-21T04:48:00;94909.06;;;8.65;82.09
82379;BME280;72008;48.140;11.614;2023-11-21T04:49:01;94901.34;;;8.68;76.56
82379;BME280;72008;48.140;11.614;2023-11-21T04:50:02;94914.50;;;8.78;81.85
82379;BME280;72008;48.140;11.614;2023-11-21T04:51:03;94912.13;;;8.76;79.31
82379;BME280;72008;48.140;11.614;2023-11-21T04:52:03;94906.91;;;8.71;78.14
82379;BME280;72008;48.140;11.614;2023-11-21T04:53:04;94904.41;;;8.66;77.61
82379;BME280;72008;48.140;11.614;2023-11-21T04:54:04;94906.91;;;8.71;78.89
82379;BME280;72008;48.140;11.614;2023-11-21T04:55:05;94898.81;;;8.75;78.90
82379;BME280;72008;48.140;11.614;2023-11-21T04:56:06;94902.09;;;8.80;81.45
82379;BME280;72008;48.140;11.614;2023-11-21T04:57:06;94913.84;;;8.69;76.03
82379;BME280;72008;48.140;11.614;2023-11-21T04:58:07;94900.81;;;8.50;76.55
82379;BME280;72008;48.140;11.614;2023-11-21T04:59:07;94908.41;;;8.56;78.81
82379;BME280;72008;48.140;11.614;2023-11-21T05:00:10;94906.59;;;8.48;77.79
82379;BME280;72008;48.140;11.614;2023-11-21T05:01:10;94905.81;;;8.48;77.39
82379;BME280;72008;48.140;11.614;2023-11-21T05:02:10;94909.53;;;8.31;75.15
82379;BME280;72008;48.140;11.614;2023-11-21T05:03:11;94912.03;;;8.36;76.97
82379;BME280;72008;48.140;11.614;2023-11-21T05:04:11;94910.47;;;8.47;79.86
82379;BME280;72008;48.140;11.614;2023-11-21T05:05:12;94912.16;;;8.52;80.38
82379;BME280;72008;48.140;11.614;2023-11-21T05:06:13;94904.56;;;8.45;77.66
82379;BME280;72008;48.140;11.614;2023-11-21T05:07:13;94911.38;;;8.39;77.25
82379;BME280;72008;48.140;11.614;2023-11-21T05:08:13;94917.41;;;8.45;79.53
82379;BME280;72008;48.140;11.614;2023-11-21T05:09:14;94912.41;;;8.47;78.34
82379;BME280;72008;48.140;11.614;2023-11-21T05:10:14;94910.09;;;8.36;78.58
82379;BME280;72008;48.140;11.614;2023-11-21T05:11:28;94912.16;;;8.27;76.01
82379;BME280;72008;48.140;11.614;2023-11-21T05:12:31;94913.63;;;8.37;76.96
82379;BME280;72008;48.140;11.614;2023-11-21T05:13:31;94903.66;;;8.41;81.82
82379;BME280;72008;48.140;11.614;2023-11-21T05:14:33;94908.44;;;8.44;77.60
82379;BME280;72008;48.140;11.614;2023-11-21T05:15:34;94901.50;;;8.47;77.43
82379;BME280;72008;48.140;11.614;2023-11-21T05:16:34;94909.13;;;8.41;76.76
82379;BME280;72008;48.140;11.614;2023-11-21T05:17:35;94914.13;;;8.39;77.98
82379;BME280;72008;48.140;11.614;2023-11-21T05:18:36;94914.13;;;8.39;77.21
82379;BME280;72008;48.140;11.614;2023-11-21T05:19:36;94919.81;;;8.46;78.52
82379;BME280;72008;48.140;11.614;2023-11-21T05:20:37;94915.13;;;8.34;77.48